Time;durP1;ratioP1;P1;durP2;ratioP2;P2;SDS_P1;SDS_P2;PMS_P1;PMS_P2;Temp;Humidity;BMP_temperature;BMP_pressure;BME280_temperature;BME280_humidity;BME280_pressure;Samples;Min_cycle;Max_cycle;Signal;HPM_P1;HPM_P2
2022/09/22 00:01:38;;;;;;;8.00;3.37;;;6.90;99.90;;;;;;5053090;28;20195;-68
2022/09/22 00:04:10;;;;;;;4.37;3.50;;;7.00;99.90;;;;;;5052923;28;20223;-66
2022/09/22 00:06:40;;;;;;;6.40;3.40;;;6.90;99.90;;;;;;5053132;28;20213;-67
2022/09/22 00:09:13;;;;;;;4.53;3.50;;;6.90;99.90;;;;;;5052932;28;20191;-69
2022/09/22 00:11:43;;;;;;;6.60;3.40;;;6.80;99.90;;;;;;5052974;28;20188;-69
2022/09/22 00:14:14;;;;;;;6.90;3.47;;;6.80;99.90;;;;;;5052716;28;20698;-70
2022/09/22 00:16:45;;;;;;;6.03;3.20;;;6.80;99.90;;;;;;5052878;28;20195;-70
2022/09/22 00:19:16;;;;;;;5.37;3.60;;;6.70;99.90;;;;;;5052734;28;20199;-69
2022/09/22 00:21:45;;;;;;;5.57;3.33;;;6.70;99.90;;;;;;5052718;28;20191;-68
2022/09/22 00:24:17;;;;;;;4.67;3.10;;;6.70;99.90;;;;;;5052767;28;20223;-67
2022/09/22 00:26:46;;;;;;;4.43;3.37;;;6.70;99.90;;;;;;5052480;28;20200;-67
2022/09/22 00:29:15;;;;;;;5.67;3.40;;;6.70;99.90;;;;;;5052579;28;20199;-66
2022/09/22 00:31:45;;;;;;;7.47;3.20;;;6.70;99.90;;;;;;5052481;28;20207;-66
2022/09/22 00:34:16;;;;;;;6.23;3.20;;;6.70;99.90;;;;;;5052274;28;20231;-67
2022/09/22 00:36:45;;;;;;;4.33;3.33;;;6.70;99.90;;;;;;5052435;28;20191;-68
2022/09/22 00:39:16;;;;;;;6.30;3.43;;;6.60;99.90;;;;;;5052651;28;20219;-68
2022/09/22 00:41:47;;;;;;;5.30;3.40;;;6.60;99.90;;;;;;5052422;28;20259;-69
2022/09/22 00:44:36;;;;;;;5.27;3.43;;;6.50;99.90;;;;;;5052269;28;20211;-68
2022/09/22 00:47:14;;;;;;;5.27;3.17;;;6.70;99.90;;;;;;5052323;28;20624;-67
2022/09/22 00:49:48;;;;;;;5.03;3.37;;;6.70;99.90;;;;;;5052359;28;20187;-67
2022/09/22 00:52:21;;;;;;;5.40;3.57;;;6.60;99.90;;;;;;5052296;28;20180;-67
2022/09/22 00:54:54;;;;;;;7.07;3.47;;;6.50;99.90;;;;;;5052062;28;20224;-68
2022/09/22 00:57:25;;;;;;;5.60;3.97;;;6.50;99.90;;;;;;5052332;28;20544;-69
2022/09/22 00:59:55;;;;;;;8.23;3.67;;;6.50;99.90;;;;;;5052285;28;20191;-69
2022/09/22 01:02:24;;;;;;;9.63;3.70;;;6.50;99.90;;;;;;5052137;28;20580;-69
2022/09/22 01:04:53;;;;;;;3.77;2.90;;;6.40;99.90;;;;;;5052153;28;20211;-69
2022/09/22 01:07:25;;;;;;;4.90;3.17;;;6.30;99.90;;;;;;5052222;28;20188;-69
2022/09/22 01:09:55;;;;;;;4.33;3.23;;;6.30;99.90;;;;;;5052282;28;20195;-68
2022/09/22 01:12:25;;;;;;;5.30;3.17;;;6.30;99.90;;;;;;5052159;28;20205;-69
2022/09/22 01:15:07;;;;;;;5.17;3.57;;;6.20;99.90;;;;;;5051894;28;20215;-69
2022/09/22 01:17:46;;;;;;;5.93;3.30;;;6.20;99.90;;;;;;5051980;28;20204;-68
2022/09/22 01:20:55;;;;;;;4.63;2.73;;;6.20;99.90;;;;;;5052078;28;20188;-67
2022/09/22 01:23:47;;;;;;;4.17;2.80;;;6.20;99.90;;;;;;5052163;28;20231;-68
2022/09/22 01:26:41;;;;;;;3.83;3.17;;;6.10;99.90;;;;;;5038608;28;20204;-69
2022/09/22 01:29:34;;;;;;;4.73;3.03;;;6.10;99.90;;;;;;5019677;28;20204;-67
2022/09/22 01:32:12;;;;;;;4.33;3.13;;;6.10;99.90;;;;;;5043569;28;20219;-69
2022/09/22 01:34:46;;;;;;;3.43;2.63;;;6.00;99.90;;;;;;5051794;28;20231;-67
2022/09/22 01:37:20;;;;;;;5.80;2.70;;;6.00;99.90;;;;;;5052230;28;20231;-68
2022/09/22 01:39:52;;;;;;;3.60;2.73;;;5.90;99.90;;;;;;5052119;28;20203;-68
2022/09/22 01:42:26;;;;;;;3.30;2.60;;;6.00;99.90;;;;;;5051719;28;20200;-68
2022/09/22 01:45:01;;;;;;;4.50;3.00;;;6.00;99.90;;;;;;5051892;28;20234;-69
2022/09/22 01:47:39;;;;;;;3.33;3.03;;;6.00;99.90;;;;;;5051975;28;20203;-68
2022/09/22 01:50:14;;;;;;;4.33;2.90;;;5.90;99.90;;;;;;5052228;28;20218;-67
2022/09/22 01:52:44;;;;;;;5.30;3.17;;;5.90;99.90;;;;;;5051638;28;20207;-67
2022/09/22 01:55:19;;;;;;;4.63;3.07;;;5.80;99.90;;;;;;5051321;28;20606;-67
2022/09/22 01:57:51;;;;;;;5.10;3.37;;;5.80;99.90;;;;;;5051638;28;20203;-67
2022/09/22 02:00:22;;;;;;;4.57;3.40;;;5.80;99.90;;;;;;5051491;28;20207;-69
2022/09/22 02:02:57;;;;;;;5.37;3.63;;;5.70;99.90;;;;;;5051720;28;20668;-68
2022/09/22 02:05:32;;;;;;;4.40;3.37;;;5.70;99.90;;;;;;5051727;28;20227;-69
2022/09/22 02:08:04;;;;;;;5.70;3.43;;;5.60;99.90;;;;;;5051476;28;20709;-67
2022/09/22 02:10:40;;;;;;;4.10;3.27;;;5.60;99.90;;;;;;5054998;28;20200;-67
2022/09/22 02:13:08;;;;;;;3.63;3.33;;;5.60;99.90;;;;;;5055109;28;20202;-67
2022/09/22 02:18:28;;;;;;;6.67;4.17;;;5.60;99.90;;;;;;5055080;28;20686;-67
2022/09/22 02:20:57;;;;;;;6.47;4.20;;;5.50;99.90;;;;;;5054865;28;20212;-68
2022/09/22 02:23:26;;;;;;;4.77;3.37;;;5.50;99.90;;;;;;5054867;28;20203;-69
2022/09/22 02:25:56;;;;;;;3.30;3.00;;;5.50;99.90;;;;;;5054796;28;20211;-69
2022/09/22 02:28:26;;;;;;;4.33;3.13;;;5.40;99.90;;;;;;5055109;28;20556;-68
2022/09/22 02:30:56;;;;;;;3.77;2.80;;;5.40;99.90;;;;;;5054762;28;20267;-68
2022/09/22 02:33:47;;;;;;;3.77;2.90;;;5.40;99.90;;;;;;5054903;28;20232;-68
2022/09/22 02:36:29;;;;;;;7.63;2.90;;;5.40;99.90;;;;;;5054605;28;20242;-69
2022/09/22 02:39:03;;;;;;;5.93;3.03;;;5.30;99.90;;;;;;5055170;28;20219;-68
2022/09/22 02:41:40;;;;;;;4.77;3.10;;;5.30;99.90;;;;;;5054543;28;20210;-67
2022/09/22 02:44:18;;;;;;;5.03;3.27;;;5.40;99.90;;;;;;5054714;28;20224;-68
2022/09/22 02:46:55;;;;;;;4.50;2.93;;;5.30;99.90;;;;;;5054428;28;20210;-68
2022/09/22 02:49:27;;;;;;;5.60;3.10;;;5.30;99.90;;;;;;5054698;28;20203;-68
2022/09/22 02:51:58;;;;;;;5.53;3.80;;;5.30;99.90;;;;;;5054563;28;20207;-69
2022/09/22 02:54:27;;;;;;;5.67;3.27;;;5.30;99.90;;;;;;5053940;28;20224;-67
2022/09/22 02:56:55;;;;;;;4.30;3.30;;;5.20;99.90;;;;;;5075459;23;20236;-74
2022/09/22 02:59:24;;;;;;;3.77;3.13;;;5.20;99.90;;;;;;5053494;28;20210;-74
2022/09/22 03:01:54;;;;;;;6.83;3.80;;;5.10;99.90;;;;;;5053919;28;20667;-74
2022/09/22 03:04:24;;;;;;;7.47;4.60;;;5.10;99.90;;;;;;5053536;28;20226;-73
2022/09/22 03:06:53;;;;;;;4.33;3.87;;;5.20;99.90;;;;;;5054033;28;20206;-72
2022/09/22 03:09:21;;;;;;;4.90;3.60;;;5.10;99.90;;;;;;5054084;28;20222;-73
2022/09/22 03:11:50;;;;;;;4.27;2.97;;;5.20;99.90;;;;;;5053994;28;20200;-70
2022/09/22 03:14:19;;;;;;;8.50;3.47;;;5.10;99.90;;;;;;5053759;28;20220;-70
2022/09/22 03:16:47;;;;;;;5.37;3.10;;;5.10;99.90;;;;;;5053354;28;20232;-71
2022/09/22 03:19:16;;;;;;;5.83;3.50;;;5.10;99.90;;;;;;5053811;28;20204;-73
2022/09/22 03:21:46;;;;;;;4.17;2.80;;;5.00;99.90;;;;;;5052328;28;20211;-71
2022/09/22 03:24:14;;;;;;;4.17;2.97;;;5.00;99.90;;;;;;5053380;28;20216;-71
2022/09/22 03:26:43;;;;;;;3.50;3.03;;;5.00;99.90;;;;;;5053693;28;20226;-70
2022/09/22 03:29:12;;;;;;;4.67;2.97;;;4.90;99.90;;;;;;5053825;28;20195;-70
2022/09/22 03:31:40;;;;;;;4.00;3.00;;;4.90;99.90;;;;;;5053451;28;20207;-70
2022/09/22 03:34:09;;;;;;;3.80;3.40;;;4.90;99.90;;;;;;5053518;28;20215;-71
2022/09/22 03:36:38;;;;;;;4.53;3.23;;;4.90;99.90;;;;;;5053102;28;20196;-71
2022/09/22 03:39:08;;;;;;;4.53;3.30;;;4.90;99.90;;;;;;5052911;28;20656;-71
2022/09/22 03:41:37;;;;;;;4.40;3.50;;;4.90;99.90;;;;;;5053398;28;20211;-71
2022/09/22 03:44:06;;;;;;;4.53;3.33;;;4.90;99.90;;;;;;5052963;28;20220;-71
2022/09/22 03:46:34;;;;;;;6.20;3.63;;;4.90;99.90;;;;;;5053289;28;20196;-70
2022/09/22 03:49:03;;;;;;;5.27;3.40;;;4.80;99.90;;;;;;5053286;28;20214;-70
2022/09/22 03:51:33;;;;;;;5.50;3.03;;;4.80;99.90;;;;;;5053347;28;20551;-71
2022/09/22 03:54:01;;;;;;;5.27;3.17;;;4.80;99.90;;;;;;5052874;28;20239;-70
2022/09/22 03:56:31;;;;;;;4.70;3.47;;;4.80;99.90;;;;;;5053134;28;20570;-70
2022/09/22 03:59:00;;;;;;;3.43;3.10;;;4.80;99.90;;;;;;5053105;28;20219;-70
2022/09/22 04:01:29;;;;;;;7.87;3.40;;;4.80;99.90;;;;;;5052792;28;20203;-70
2022/09/22 04:03:57;;;;;;;4.67;3.07;;;4.70;99.90;;;;;;5052969;28;20215;-70
2022/09/22 04:06:26;;;;;;;4.97;3.20;;;4.70;99.90;;;;;;5053083;28;20207;-69
2022/09/22 04:08:55;;;;;;;4.93;3.20;;;4.70;99.90;;;;;;5053024;28;20198;-70
2022/09/22 04:11:24;;;;;;;4.37;3.10;;;4.70;99.90;;;;;;5052978;28;20200;-69
2022/09/22 04:13:54;;;;;;;4.47;3.47;;;4.70;99.90;;;;;;5052538;28;20236;-71
2022/09/22 04:16:22;;;;;;;5.13;3.60;;;4.70;99.90;;;;;;5053203;28;20211;-70
2022/09/22 04:18:51;;;;;;;5.03;3.23;;;4.70;99.90;;;;;;5053049;28;20223;-70
2022/09/22 04:21:23;;;;;;;3.73;3.37;;;4.70;99.90;;;;;;5053017;28;20188;-70
2022/09/22 04:23:51;;;;;;;5.23;3.13;;;4.70;99.90;;;;;;5052773;28;20216;-69
2022/09/22 04:26:20;;;;;;;5.00;3.47;;;4.70;99.90;;;;;;5052842;28;20196;-70
2022/09/22 04:28:49;;;;;;;6.17;3.40;;;4.70;99.90;;;;;;5052785;28;20210;-70
2022/09/22 04:31:19;;;;;;;4.13;3.30;;;4.60;99.90;;;;;;5052544;28;20196;-71
2022/09/22 04:33:48;;;;;;;3.40;2.80;;;4.60;99.90;;;;;;5052450;28;20692;-70
2022/09/22 04:36:16;;;;;;;5.73;3.43;;;4.50;99.90;;;;;;5052576;28;20567;-72
2022/09/22 04:38:45;;;;;;;5.70;3.63;;;4.50;99.90;;;;;;5052046;28;20231;-70
2022/09/22 04:41:14;;;;;;;7.27;3.60;;;4.50;99.90;;;;;;5052514;28;20196;-70
2022/09/22 04:43:42;;;;;;;5.33;3.37;;;4.50;99.90;;;;;;5051999;28;20230;-70
2022/09/22 04:46:11;;;;;;;5.50;3.87;;;4.40;99.90;;;;;;5052478;28;20558;-71
2022/09/22 04:48:41;;;;;;;6.47;3.67;;;4.40;99.90;;;;;;5051047;28;20203;-70
2022/09/22 04:51:10;;;;;;;5.90;3.73;;;4.40;99.90;;;;;;5052624;28;20194;-70
2022/09/22 04:53:38;;;;;;;7.63;6.83;;;4.30;99.90;;;;;;5052239;28;20215;-70
2022/09/22 04:56:07;;;;;;;4.33;3.93;;;4.30;99.90;;;;;;5052117;28;20214;-69
2022/09/22 04:58:36;;;;;;;4.80;3.20;;;4.40;99.90;;;;;;5052268;28;20220;-70
2022/09/22 05:01:06;;;;;;;5.57;3.27;;;4.40;99.90;;;;;;5052208;28;20196;-71
2022/09/22 05:03:36;;;;;;;5.20;3.20;;;4.40;99.90;;;;;;5052439;28;20195;-70
2022/09/22 05:06:07;;;;;;;6.93;3.27;;;4.30;99.90;;;;;;5052246;28;20184;-69
2022/09/22 05:08:36;;;;;;;5.93;3.70;;;4.30;99.90;;;;;;5052209;28;20188;-70
2022/09/22 05:11:08;;;;;;;5.57;3.40;;;4.30;99.90;;;;;;5052142;28;20191;-69
2022/09/22 05:13:39;;;;;;;5.97;3.27;;;4.20;99.90;;;;;;5052152;28;20183;-71
2022/09/22 05:16:08;;;;;;;5.50;3.50;;;4.20;99.90;;;;;;5052221;28;20546;-69
2022/09/22 05:18:38;;;;;;;6.73;3.87;;;4.20;99.90;;;;;;5051961;28;20231;-69
2022/09/22 05:21:08;;;;;;;6.03;3.63;;;4.30;99.90;;;;;;5052155;28;20207;-69
2022/09/22 05:23:38;;;;;;;5.23;3.60;;;4.30;99.90;;;;;;5051529;28;20211;-70
2022/09/22 05:26:07;;;;;;;5.43;4.20;;;4.30;99.90;;;;;;5051649;28;20679;-69
2022/09/22 05:28:35;;;;;;;5.20;4.20;;;4.30;99.90;;;;;;5052099;28;20219;-69
2022/09/22 05:31:04;;;;;;;6.87;3.60;;;4.30;99.90;;;;;;5052040;28;20196;-71
2022/09/22 05:33:33;;;;;;;6.97;4.30;;;4.30;99.90;;;;;;5051902;28;20564;-70
2022/09/22 05:36:02;;;;;;;6.80;4.03;;;4.30;99.90;;;;;;5051856;28;20199;-70
2022/09/22 05:38:32;;;;;;;7.40;5.37;;;4.40;99.90;;;;;;5051734;28;20227;-69
2022/09/22 05:41:02;;;;;;;8.27;5.50;;;4.40;99.90;;;;;;5052144;28;20195;-71
2022/09/22 05:43:31;;;;;;;11.70;5.83;;;4.40;99.90;;;;;;5051790;28;20196;-70
2022/09/22 05:45:59;;;;;;;11.07;5.57;;;4.40;99.90;;;;;;5055692;28;20551;-70
2022/09/22 05:48:28;;;;;;;9.23;5.90;;;4.30;99.90;;;;;;5055669;28;20640;-71
2022/09/22 05:50:59;;;;;;;8.97;6.50;;;4.30;99.90;;;;;;5055659;28;20666;-70
2022/09/22 05:53:28;;;;;;;15.43;8.50;;;4.40;99.90;;;;;;5055523;28;20191;-71
2022/09/22 05:55:58;;;;;;;19.83;11.03;;;4.40;99.90;;;;;;5055627;28;20565;-69
2022/09/22 05:58:27;;;;;;;25.57;15.97;;;4.40;99.90;;;;;;5055313;28;20239;-70
2022/09/22 06:00:56;;;;;;;52.87;32.13;;;4.40;99.90;;;;;;5055488;28;20195;-69
2022/09/22 06:03:25;;;;;;;104.17;46.90;;;4.50;99.90;;;;;;5055287;28;20194;-69
2022/09/22 06:05:54;;;;;;;129.07;53.23;;;4.50;99.90;;;;;;5055340;28;20203;-70
2022/09/22 06:08:23;;;;;;;18.10;10.20;;;4.50;99.90;;;;;;5055366;28;20188;-69
2022/09/22 06:10:51;;;;;;;10.57;6.33;;;4.60;99.90;;;;;;5055277;28;20196;-70
2022/09/22 06:13:21;;;;;;;10.23;6.40;;;4.70;99.90;;;;;;5055138;28;20199;-69
2022/09/22 06:15:50;;;;;;;15.53;9.43;;;4.70;99.90;;;;;;5055110;28;20652;-69
2022/09/22 06:18:19;;;;;;;10.83;7.10;;;4.70;99.90;;;;;;5054978;28;20188;-70
2022/09/22 06:20:54;;;;;;;33.63;17.50;;;4.80;99.90;;;;;;5055153;28;20184;-70
2022/09/22 06:23:25;;;;;;;32.47;17.30;;;4.80;99.90;;;;;;5053810;28;20214;-70
2022/09/22 06:25:58;;;;;;;57.70;24.67;;;4.90;99.90;;;;;;5055063;28;20203;-70
2022/09/22 06:28:28;;;;;;;50.33;21.93;;;5.00;99.90;;;;;;5037176;28;20203;-71
2022/09/22 06:30:59;;;;;;;13.33;7.83;;;5.10;99.90;;;;;;5055252;28;20210;-70
2022/09/22 06:33:28;;;;;;;12.40;8.40;;;5.10;99.90;;;;;;5054847;28;20188;-69
2022/09/22 06:35:57;;;;;;;9.93;5.53;;;5.20;99.90;;;;;;5054832;28;20560;-70
2022/09/22 06:38:26;;;;;;;16.80;9.10;;;5.20;99.90;;;;;;5054374;28;20207;-70
2022/09/22 06:40:59;;;;;;;10.57;6.50;;;5.30;99.90;;;;;;5054651;28;20230;-70
2022/09/22 06:43:31;;;;;;;8.70;5.53;;;5.30;99.90;;;;;;5054552;28;20188;-70
2022/09/22 06:46:01;;;;;;;10.63;5.50;;;5.40;99.90;;;;;;5054578;28;20259;-70
2022/09/22 06:48:30;;;;;;;19.60;7.23;;;5.60;99.90;;;;;;5054491;28;20184;-70
2022/09/22 06:50:59;;;;;;;12.47;6.23;;;5.60;99.90;;;;;;5054519;28;20196;-70
2022/09/22 06:53:28;;;;;;;11.23;6.70;;;5.70;99.90;;;;;;5054398;28;20535;-70
2022/09/22 06:56:00;;;;;;;10.93;6.27;;;5.70;99.90;;;;;;5054122;28;20656;-70
2022/09/22 06:58:31;;;;;;;9.77;5.67;;;5.70;99.90;;;;;;5054347;28;20185;-70
2022/09/22 07:01:20;;;;;;;9.13;5.83;;;5.70;99.90;;;;;;5054316;28;20195;-70
2022/09/22 07:03:49;;;;;;;8.30;5.50;;;5.70;99.90;;;;;;5054239;28;20215;-69
2022/09/22 07:06:18;;;;;;;6.97;4.87;;;5.80;99.90;;;;;;5054235;28;20199;-69
2022/09/22 07:08:49;;;;;;;7.50;5.53;;;5.80;99.90;;;;;;5054217;28;20644;-70
2022/09/22 07:11:22;;;;;;;8.17;5.80;;;6.00;99.90;;;;;;5054078;28;20566;-70
2022/09/22 07:13:53;;;;;;;7.23;5.40;;;6.10;99.90;;;;;;5054099;28;20699;-70
2022/09/22 07:16:24;;;;;;;5.97;4.70;;;6.20;99.90;;;;;;5054193;28;20194;-70
2022/09/22 07:18:55;;;;;;;6.90;5.83;;;6.40;99.90;;;;;;5053994;28;20199;-71
2022/09/22 07:21:26;;;;;;;5.93;5.23;;;6.50;99.90;;;;;;5053867;28;20220;-70
2022/09/22 07:23:56;;;;;;;7.77;6.30;;;6.60;99.90;;;;;;5054115;28;20212;-70
2022/09/22 07:26:27;;;;;;;8.40;5.00;;;6.80;99.90;;;;;;5052730;28;20188;-70
2022/09/22 07:28:59;;;;;;;6.00;5.13;;;7.00;99.90;;;;;;5054095;28;20188;-70
2022/09/22 07:31:30;;;;;;;6.23;4.80;;;7.20;99.90;;;;;;5053832;28;20184;-70
2022/09/22 07:34:00;;;;;;;6.10;4.87;;;7.40;99.90;;;;;;5053375;28;20219;-70
2022/09/22 07:36:30;;;;;;;5.27;3.97;;;7.60;99.90;;;;;;5053625;28;20199;-70
2022/09/22 07:39:04;;;;;;;7.50;4.90;;;7.80;99.90;;;;;;5053711;28;20191;-70
2022/09/22 07:41:40;;;;;;;5.13;4.63;;;7.90;99.90;;;;;;5053669;28;20215;-70
2022/09/22 07:46:58;;;;;;;4.53;4.03;;;8.20;99.90;;;;;;5053640;28;20188;-71
2022/09/22 07:49:27;;;;;;;5.07;4.50;;;8.40;99.90;;;;;;5053540;28;20191;-70
2022/09/22 07:51:56;;;;;;;6.37;4.40;;;8.40;99.90;;;;;;5053342;28;20187;-70
2022/09/22 07:54:26;;;;;;;7.53;4.90;;;8.30;99.90;;;;;;5053277;28;20595;-70
2022/09/22 07:56:57;;;;;;;7.00;4.47;;;8.40;99.90;;;;;;5053144;28;20211;-71
2022/09/22 07:59:27;;;;;;;5.77;4.90;;;8.70;99.90;;;;;;5053321;28;20636;-71
2022/09/22 08:01:59;;;;;;;6.33;4.40;;;9.10;99.90;;;;;;5052068;28;20599;-72
2022/09/22 08:04:30;;;;;;;6.40;4.80;;;9.20;99.90;;;;;;5053882;28;20714;-71
2022/09/22 08:06:59;;;;;;;5.80;4.50;;;9.30;99.90;;;;;;5052542;28;20655;-71
2022/09/22 08:09:29;;;;;;;5.10;4.20;;;9.40;99.90;;;;;;5051914;28;20195;-71
2022/09/22 08:11:57;;;;;;;7.70;4.17;;;9.50;99.90;;;;;;5052967;28;20192;-70
2022/09/22 08:14:29;;;;;;;4.87;4.33;;;9.70;99.90;;;;;;5052945;28;20214;-71
2022/09/22 08:16:57;;;;;;;5.07;4.10;;;10.00;99.90;;;;;;5052926;28;20548;-72
2022/09/22 08:19:26;;;;;;;6.83;4.50;;;10.30;99.90;;;;;;5052854;28;20191;-72
2022/09/22 08:21:55;;;;;;;5.03;4.07;;;10.40;99.90;;;;;;5052930;28;20223;-71
2022/09/22 08:24:24;;;;;;;6.90;4.87;;;10.50;99.90;;;;;;5052720;28;20216;-72
2022/09/22 08:26:54;;;;;;;5.55;4.18;;;10.60;99.90;;;;;;5052876;28;20205;-71
2022/09/22 08:29:24;;;;;;;7.10;4.82;;;10.80;99.90;;;;;;5052910;28;20194;-70
2022/09/22 08:31:54;;;;;;;4.85;3.95;;;11.00;99.90;;;;;;5052657;28;20203;-71
2022/09/22 08:34:23;;;;;;;6.30;4.07;;;11.10;99.90;;;;;;5052783;28;20234;-70
2022/09/22 08:36:51;;;;;;;7.10;4.38;;;11.20;99.90;;;;;;5052461;28;20536;-70
2022/09/22 08:39:20;;;;;;;4.22;3.70;;;11.30;99.90;;;;;;5052565;28;20578;-70
2022/09/22 08:42:06;;;;;;;8.05;4.47;;;11.60;99.90;;;;;;5052421;28;20599;-70
2022/09/22 08:44:40;;;;;;;5.57;3.70;;;11.80;99.90;;;;;;5051199;28;20541;-71
2022/09/22 08:51:50;;;;;;;5.13;3.60;;;12.00;99.90;;;;;;5052425;28;20184;-71
2022/09/22 08:53:10;;;;;;;4.35;3.90;;;12.40;99.90;;;;;;5052199;28;20198;-72
2022/09/22 08:55:44;;;;;;;6.80;4.68;;;12.60;99.90;;;;;;5052583;28;20223;-71
2022/09/22 08:58:31;;;;;;;5.07;4.00;;;12.80;99.90;;;;;;5052262;28;20194;-72
2022/09/22 09:01:09;;;;;;;5.55;4.35;;;13.10;99.90;;;;;;5052165;28;20211;-71
2022/09/22 09:03:56;;;;;;;4.68;3.92;;;13.20;99.90;;;;;;5052230;28;20223;-71
2022/09/22 09:06:34;;;;;;;4.85;4.00;;;13.30;99.90;;;;;;5052352;28;20195;-71
2022/09/22 09:09:23;;;;;;;5.20;4.03;;;13.40;99.90;;;;;;5052271;28;20632;-71
2022/09/22 09:12:21;;;;;;;6.70;4.03;;;13.40;99.90;;;;;;5052159;28;20194;-71
2022/09/22 09:15:07;;;;;;;7.85;4.80;;;13.60;99.90;;;;;;5051354;28;20227;-72
2022/09/22 09:17:38;;;;;;;7.40;4.10;;;13.70;99.90;;;;;;5052162;28;20192;-71
2022/09/22 09:20:17;;;;;;;7.00;4.97;;;13.70;99.90;;;;;;5054827;28;20195;-72
2022/09/22 09:22:51;;;;;;;5.43;3.88;;;13.80;99.90;;;;;;5055074;28;20582;-72
2022/09/22 09:25:25;;;;;;;4.35;3.50;;;14.00;99.90;;;;;;5056052;28;20212;-73
2022/09/22 09:27:59;;;;;;;5.28;3.83;;;14.00;99.90;;;;;;5056277;28;20662;-71
2022/09/22 09:30:38;;;;;;;5.18;3.15;;;14.00;99.90;;;;;;5056299;28;20188;-72
2022/09/22 09:33:16;;;;;;;5.05;3.97;;;14.20;99.90;;;;;;5056022;28;20198;-73
2022/09/22 09:35:51;;;;;;;6.93;4.00;;;14.30;99.90;;;;;;5056194;28;20192;-71
2022/09/22 09:38:27;;;;;;;6.43;4.30;;;14.50;99.90;;;;;;5056077;28;20194;-74
2022/09/22 09:41:02;;;;;;;6.32;4.18;;;14.80;99.90;;;;;;5055884;28;20218;-72
2022/09/22 09:43:32;;;;;;;5.80;4.05;;;14.90;99.90;;;;;;5055909;28;20210;-73
2022/09/22 09:46:13;;;;;;;5.50;3.83;;;15.00;99.90;;;;;;5055777;28;20202;-72
2022/09/22 09:48:59;;;;;;;7.32;4.63;;;15.20;99.90;;;;;;5055987;28;20520;-73
2022/09/22 09:51:29;;;;;;;5.07;3.80;;;15.40;99.90;;;;;;5055816;28;20199;-71
2022/09/22 09:54:04;;;;;;;5.82;3.65;;;15.50;99.90;;;;;;5055687;28;20216;-71
2022/09/22 09:56:35;;;;;;;4.95;3.13;;;15.60;99.90;;;;;;5055604;28;20207;-72
2022/09/22 10:01:54;;;;;;;6.78;3.63;;;15.80;99.90;;;;;;5055371;28;20238;-71
2022/09/22 10:04:29;;;;;;;6.25;3.28;;;15.90;99.90;;;;;;5055362;28;20696;-72
2022/09/22 10:07:12;;;;;;;4.60;2.92;;;15.90;99.90;;;;;;5055434;28;20195;-71
2022/09/22 10:09:42;;;;;;;6.03;3.05;;;15.90;99.90;;;;;;5055313;28;20211;-72
2022/09/22 10:12:23;;;;;;;5.82;2.95;;;16.10;99.90;;;;;;5055243;28;20192;-72
2022/09/22 10:14:53;;;;;;;4.85;3.55;;;16.20;99.90;;;;;;5055097;28;20215;-71
2022/09/22 10:17:24;;;;;;;4.57;3.33;;;16.30;99.90;;;;;;5055274;28;20656;-72
2022/09/22 10:19:52;;;;;;;4.95;3.40;;;16.30;99.90;;;;;;5055101;28;20184;-71
2022/09/22 10:22:28;;;;;;;6.00;3.33;;;16.50;99.90;;;;;;5054981;28;20226;-73
2022/09/22 10:25:01;;;;;;;3.83;3.20;;;16.70;99.90;;;;;;5055016;28;20236;-72
2022/09/22 10:27:31;;;;;;;4.22;3.03;;;17.10;98.00;;;;;;5054942;28;20191;-72
2022/09/22 10:30:20;;;;;;;4.85;3.10;;;17.70;97.10;;;;;;5054388;28;20191;-71
2022/09/22 10:33:14;;;;;;;3.67;2.25;;;17.70;96.00;;;;;;5054460;28;20208;-71
2022/09/22 10:35:46;;;;;;;1.98;1.75;;;17.70;95.00;;;;;;5054866;28;20184;-70
2022/09/22 10:38:19;;;;;;;9.52;6.03;;;17.70;93.60;;;;;;5054753;28;20208;-71
2022/09/22 10:40:54;;;;;;;11.05;5.90;;;17.90;92.50;;;;;;5054698;28;20211;-71
2022/09/22 10:43:36;;;;;;;3.58;1.70;;;18.10;91.00;;;;;;5054550;28;20204;-72
2022/09/22 10:46:21;;;;;;;2.72;1.63;;;18.20;92.40;;;;;;5054677;28;20229;-71
2022/09/22 10:48:55;;;;;;;2.47;1.35;;;18.30;91.60;;;;;;5054632;28;20192;-71
2022/09/22 10:51:38;;;;;;;2.88;1.38;;;18.60;89.40;;;;;;5054615;28;20196;-71
2022/09/22 10:54:23;;;;;;;2.38;1.60;;;18.80;85.00;;;;;;5054395;28;20227;-71
2022/09/22 10:56:55;;;;;;;3.42;1.73;;;19.00;86.50;;;;;;5054399;28;20204;-71
2022/09/22 10:59:43;;;;;;;3.05;1.60;;;18.70;87.00;;;;;;5054312;28;20203;-70
2022/09/22 11:02:38;;;;;;;4.03;1.48;;;18.70;88.40;;;;;;5054334;28;20222;-70
2022/09/22 11:14:22;;;;;;;1.40;1.20;;;19.30;84.10;;;;;;4992759;28;20225;-71
2022/09/22 11:17:03;;;;;;;1.67;1.30;;;19.50;80.80;;;;;;5037305;28;20199;-71
2022/09/22 11:20:15;;;;;;;1.67;1.08;;;19.60;80.10;;;;;;5054072;28;20195;-71
2022/09/22 11:23:08;;;;;;;2.88;1.05;;;20.00;76.00;;;;;;4992544;28;20232;-71
2022/09/22 11:25:50;;;;;;;2.35;1.20;;;19.80;76.00;;;;;;5053943;28;20227;-70
2022/09/22 11:28:34;;;;;;;1.75;0.95;;;19.70;76.50;;;;;;5053944;28;20183;-71
2022/09/22 11:31:03;;;;;;;1.48;1.05;;;19.90;78.40;;;;;;5053879;28;20647;-71
2022/09/22 11:34:01;;;;;;;2.55;1.10;;;19.70;76.90;;;;;;5053631;28;20196;-71
2022/09/22 11:36:42;;;;;;;2.40;1.38;;;20.00;77.80;;;;;;5047712;28;20199;-71
2022/09/22 11:39:38;;;;;;;2.05;1.15;;;20.30;70.80;;;;;;5053759;28;20190;-71
2022/09/22 11:42:18;;;;;;;1.30;0.95;;;20.50;70.50;;;;;;5052676;28;20195;-71
2022/09/22 11:45:01;;;;;;;1.92;1.00;;;20.50;74.50;;;;;;5053521;28;20715;-69
2022/09/22 11:47:46;;;;;;;2.17;1.33;;;20.40;72.50;;;;;;5053521;28;20195;-71
2022/09/22 11:50:43;;;;;;;3.30;1.27;;;20.30;73.00;;;;;;5053557;28;20188;-70
2022/09/22 11:53:35;;;;;;;1.70;1.40;;;20.30;72.40;;;;;;5053432;28;20199;-71
2022/09/22 11:56:31;;;;;;;1.77;1.20;;;20.30;71.30;;;;;;5051440;28;20211;-71
2022/09/22 11:59:05;;;;;;;2.25;1.50;;;20.80;72.10;;;;;;5053248;28;20181;-71
2022/09/22 12:01:39;;;;;;;1.50;1.40;;;20.90;70.90;;;;;;5053213;28;20184;-70
2022/09/22 12:04:16;;;;;;;2.45;1.48;;;20.90;69.70;;;;;;5053132;28;20227;-71
2022/09/22 12:06:49;;;;;;;2.70;1.67;;;20.60;71.90;;;;;;5053133;28;20199;-70
2022/09/22 12:09:32;;;;;;;3.28;1.40;;;20.60;73.30;;;;;;5053160;28;20530;-69
2022/09/22 12:12:06;;;;;;;1.75;1.42;;;20.90;70.70;;;;;;5053112;28;20191;-70
2022/09/22 12:14:36;;;;;;;2.00;1.35;;;21.10;69.70;;;;;;5052979;28;20219;-70
2022/09/22 12:17:09;;;;;;;2.70;1.70;;;21.30;68.30;;;;;;5052668;28;20570;-70
2022/09/22 12:19:49;;;;;;;4.40;1.50;;;21.30;68.10;;;;;;5053044;28;20203;-70
2022/09/22 12:22:24;;;;;;;3.03;1.52;;;21.30;69.20;;;;;;5052871;28;20195;-71
2022/09/22 12:24:53;;;;;;;2.60;1.85;;;21.50;65.00;;;;;;5053026;28;20223;-70
2022/09/22 12:27:23;;;;;;;2.88;1.83;;;21.50;66.10;;;;;;5052708;28;20188;-70
2022/09/22 12:29:58;;;;;;;2.78;1.75;;;21.40;65.70;;;;;;5052702;28;20187;-71
2022/09/22 12:32:35;;;;;;;2.92;1.60;;;21.30;68.90;;;;;;5052726;28;20206;-70
2022/09/22 12:35:04;;;;;;;3.17;1.75;;;21.00;70.20;;;;;;5052946;28;20574;-70
2022/09/22 12:37:35;;;;;;;3.10;1.60;;;20.70;70.70;;;;;;5052638;28;20194;-73
2022/09/22 12:40:22;;;;;;;3.85;1.50;;;20.70;68.30;;;;;;5052603;28;20195;-73
2022/09/22 12:42:53;;;;;;;1.88;1.52;;;20.90;66.80;;;;;;5052510;28;20192;-73
2022/09/22 12:45:31;;;;;;;3.08;1.38;;;20.70;67.40;;;;;;5052468;28;20211;-71
2022/09/22 12:48:08;;;;;;;2.83;1.67;;;20.50;67.30;;;;;;5052462;28;20632;-72
2022/09/22 12:50:40;;;;;;;3.33;1.50;;;20.30;67.70;;;;;;5052462;28;20207;-74
2022/09/22 12:53:24;;;;;;;3.65;1.63;;;20.20;68.50;;;;;;5052224;28;20196;-72
2022/09/22 12:55:53;;;;;;;1.83;1.35;;;20.20;68.50;;;;;;5052230;28;20569;-71
2022/09/22 12:58:42;;;;;;;2.08;1.50;;;20.30;68.10;;;;;;5052334;28;20192;-71
2022/09/22 13:01:32;;;;;;;1.38;1.20;;;20.30;68.40;;;;;;5052381;28;20196;-71
2022/09/22 13:04:17;;;;;;;3.28;1.25;;;20.20;67.90;;;;;;5052156;28;20234;-71
2022/09/22 13:06:55;;;;;;;2.22;1.00;;;20.00;66.30;;;;;;5051350;28;20199;-71
2022/09/22 13:09:28;;;;;;;1.80;1.20;;;19.80;66.60;;;;;;5052285;28;20188;-74
2022/09/22 13:12:22;;;;;;;4.55;1.30;;;19.50;67.80;;;;;;5052235;28;20188;-74
2022/09/22 13:15:19;;;;;;;9.15;4.07;;;19.20;69.30;;;;;;5052327;28;20670;-74
2022/09/22 13:17:49;;;;;;;1.85;1.20;;;19.10;68.60;;;;;;5052407;28;20203;-73
2022/09/22 13:20:22;;;;;;;3.53;2.40;;;19.40;66.50;;;;;;5052272;28;20188;-73
2022/09/22 13:22:54;;;;;;;8.10;4.00;;;19.40;68.00;;;;;;5052053;28;20678;-73
2022/09/22 13:25:25;;;;;;;3.20;1.50;;;19.50;70.40;;;;;;5051975;28;20241;-74
2022/09/22 13:28:21;;;;;;;1.95;1.02;;;19.60;70.30;;;;;;5052165;28;20192;-74
2022/09/22 13:30:59;;;;;;;1.98;0.90;;;20.00;67.60;;;;;;5017317;28;20207;-72
2022/09/22 13:33:35;;;;;;;2.90;1.13;;;20.00;69.60;;;;;;5052041;28;20188;-74
2022/09/22 13:36:08;;;;;;;1.85;1.10;;;20.00;69.40;;;;;;5052084;28;20199;-73
2022/09/22 13:38:40;;;;;;;2.58;1.23;;;19.80;68.30;;;;;;5051996;28;20195;-73
2022/09/22 13:41:17;;;;;;;3.58;2.90;;;19.60;67.10;;;;;;5051985;28;20188;-74
2022/09/22 13:43:49;;;;;;;2.50;1.40;;;19.40;69.30;;;;;;5051893;28;20219;-74
2022/09/22 13:46:23;;;;;;;2.95;1.50;;;19.20;68.70;;;;;;5051953;28;20192;-73
2022/09/22 13:48:55;;;;;;;2.22;1.20;;;19.10;68.60;;;;;;5051867;28;20636;-74